E.r. Basel — A8XQ4 — position and weather

sailwx.info

Track history (hours):
 
Tides and Currents Weather Stations Pressure Air Temp Water Temp Dewpoint Dewpoint Depression Visibility Wind Speed Wind Dir Waves Ship Positions

E.r. Basel

Last reported at 2015-Feb-08 21:12 UTC. Time now 2015-Mar-30 23:05 UTC.
Position N 01°48' E 102°33'.
Warning: this ship's position is 50 days out of date.

Length 187 m; draft 6.8 m.

Type: Cargo ship. MMSI: 636092149.

Date/timePositionNaut miles runAvg speedWind from/ knotsBaromVisibWave heightAir tempDewpointWater temp
2015-Feb-08 21:12N 01°48' E 102°33'7611.4
2015-Feb-08 14:29N 01°11' E 103°40'1010.8
2015-Feb-08 13:32N 01°11' E 103°50'1110.8
2015-Feb-08 12:32N 01°16' E 103°60'1 1.3
2015-Feb-08 11:30N 01°17' E 103°59'0 0.1
2015-Feb-08 10:24N 01°17' E 103°59'0 0.0
2015-Feb-08 09:27N 01°17' E 103°59'0 0.0
2015-Feb-08 08:24N 01°17' E 103°59'0 0.0
2015-Feb-08 07:18N 01°17' E 103°59'0 0.1
2015-Feb-08 06:06N 01°17' E 103°59'0 0.0
2015-Feb-08 05:30N 01°17' E 103°59'0 0.0
2015-Feb-08 04:18N 01°17' E 103°59'0 0.0
2015-Feb-08 03:24N 01°17' E 103°59'0 0.0
2015-Feb-08 02:12N 01°17' E 103°59'0 0.0
2015-Feb-08 01:24N 01°17' E 103°59'0 0.0
2015-Feb-08 00:30N 01°17' E 103°59'0 0.0
2015-Feb-07 23:30N 01°17' E 103°59'0 0.0
2015-Feb-07 21:12N 01°17' E 103°59'0 0.0
2015-Feb-07 20:27N 01°17' E 103°59'0 0.1
2015-Feb-07 19:30N 01°17' E 103°59'0 0.1
2015-Feb-07 18:33N 01°18' E 103°59'3 3.3
2015-Feb-07 17:33N 01°15' E 103°57'4 3.6
2015-Feb-07 16:33N 01°16' E 104°01'8 8.1
2015-Feb-07 15:32N 01°17' E 104°09'  
Track history (hours):
 
Tides and Currents Weather Stations Pressure Air Temp Water Temp Dewpoint Dewpoint Depression Visibility Wind Speed Wind Dir Waves Ship Positions

E.r. Basel

Last reported at 2015-Feb-08 21:12 UTC. Time now 2015-Mar-30 23:05 UTC.
Position N 01°48' E 102°33'.
Warning: this ship's position is 50 days out of date.

Length 187 m; draft 6.8 m.

Type: Cargo ship. MMSI: 636092149.

Date/timePositionNaut miles runAvg speedWind from/ knotsBaromVisibWave heightAir tempDewpointWater temp
2015-Feb-08 21:12N 01°48' E 102°33'7611.4
2015-Feb-08 14:29N 01°11' E 103°40'1010.8
2015-Feb-08 13:32N 01°11' E 103°50'1110.8
2015-Feb-08 12:32N 01°16' E 103°60'1 1.3
2015-Feb-08 11:30N 01°17' E 103°59'0 0.1
2015-Feb-08 10:24N 01°17' E 103°59'0 0.0
2015-Feb-08 09:27N 01°17' E 103°59'0 0.0
2015-Feb-08 08:24N 01°17' E 103°59'0 0.0
2015-Feb-08 07:18N 01°17' E 103°59'0 0.1
2015-Feb-08 06:06N 01°17' E 103°59'0 0.0
2015-Feb-08 05:30N 01°17' E 103°59'0 0.0
2015-Feb-08 04:18N 01°17' E 103°59'0 0.0
2015-Feb-08 03:24N 01°17' E 103°59'0 0.0
2015-Feb-08 02:12N 01°17' E 103°59'0 0.0
2015-Feb-08 01:24N 01°17' E 103°59'0 0.0
2015-Feb-08 00:30N 01°17' E 103°59'0 0.0
2015-Feb-07 23:30N 01°17' E 103°59'0 0.0
2015-Feb-07 21:12N 01°17' E 103°59'0 0.0
2015-Feb-07 20:27N 01°17' E 103°59'0 0.1
2015-Feb-07 19:30N 01°17' E 103°59'0 0.1
2015-Feb-07 18:33N 01°18' E 103°59'3 3.3
2015-Feb-07 17:33N 01°15' E 103°57'4 3.6
2015-Feb-07 16:33N 01°16' E 104°01'8 8.1
2015-Feb-07 15:32N 01°17' E 104°09'  

Dump ship's entire track history